Time;durP1;ratioP1;P1;durP2;ratioP2;P2;SDS_P1;SDS_P2;PMS_P1;PMS_P2;Temp;Humidity;BMP_temperature;BMP_pressure;BME280_temperature;BME280_humidity;BME280_pressure;Samples;Min_cycle;Max_cycle;Signal;HPM_P1;HPM_P2
2022/02/07 00:00:40;;;;;;;8.27;4.77;;;7.90;99.90;;;;;;5076896;28;20233;-64
2022/02/07 00:03:20;;;;;;;6.97;4.70;;;7.80;99.90;;;;;;5084701;28;20178;-64
2022/02/07 00:05:47;;;;;;;8.70;5.60;;;7.80;99.90;;;;;;5082421;28;20573;-66
2022/02/07 00:08:14;;;;;;;6.57;5.07;;;7.80;99.90;;;;;;5077743;28;20198;-63
2022/02/07 00:10:42;;;;;;;8.70;5.00;;;7.80;99.90;;;;;;5084935;28;20202;-67
2022/02/07 00:13:09;;;;;;;6.53;4.83;;;7.80;99.90;;;;;;5081528;28;20216;-63
2022/02/07 00:15:36;;;;;;;8.73;5.00;;;7.80;99.90;;;;;;5087775;28;20308;-64
2022/02/07 00:18:04;;;;;;;7.77;5.33;;;7.80;99.90;;;;;;5085914;28;20196;-64
2022/02/07 00:20:32;;;;;;;7.37;5.07;;;7.80;99.90;;;;;;5083580;28;20195;-67
2022/02/07 00:22:58;;;;;;;6.63;5.30;;;7.70;99.90;;;;;;5082830;28;20263;-65
2022/02/07 00:25:24;;;;;;;11.77;6.13;;;7.70;99.90;;;;;;5070131;28;20619;-63
2022/02/07 00:27:50;;;;;;;7.03;4.77;;;7.70;99.90;;;;;;5062280;28;20191;-64
2022/02/07 00:30:20;;;;;;;7.27;5.03;;;7.70;99.90;;;;;;5083261;28;20236;-66
2022/02/07 00:32:48;;;;;;;14.23;5.17;;;7.70;99.90;;;;;;5093461;28;20214;-64
2022/02/07 00:35:18;;;;;;;8.30;4.97;;;7.70;99.90;;;;;;5069790;28;20212;-63
2022/02/07 00:37:47;;;;;;;5.67;4.80;;;7.70;99.90;;;;;;5075561;28;20227;-64
2022/02/07 00:40:31;;;;;;;7.40;5.03;;;7.70;99.90;;;;;;5070649;28;20818;-63
2022/02/07 00:43:04;;;;;;;8.07;4.83;;;7.60;99.90;;;;;;5077199;28;20205;-67
2022/02/07 00:48:07;;;;;;;7.43;4.67;;;7.60;99.90;;;;;;5069699;28;20191;-65
2022/02/07 00:50:36;;;;;;;7.23;4.87;;;7.60;99.90;;;;;;5078818;28;20265;-65
2022/02/07 00:53:13;;;;;;;8.93;4.83;;;7.60;99.90;;;;;;5084773;28;20209;-65
2022/02/07 00:55:40;;;;;;;6.27;5.20;;;7.50;99.90;;;;;;5067490;28;20214;-66
2022/02/07 00:58:06;;;;;;;9.03;5.03;;;7.50;99.90;;;;;;5077976;28;20190;-64
2022/02/07 01:00:33;;;;;;;7.33;5.20;;;7.50;99.90;;;;;;5080075;28;20187;-66
2022/02/07 01:03:00;;;;;;;8.03;5.00;;;7.40;99.90;;;;;;5098782;28;20666;-65
2022/02/07 01:05:27;;;;;;;7.13;5.00;;;7.50;99.90;;;;;;5083662;28;20202;-66
2022/02/07 01:07:59;;;;;;;7.73;4.80;;;7.40;99.90;;;;;;5089441;28;20179;-64
2022/02/07 01:10:34;;;;;;;7.40;4.87;;;7.40;99.90;;;;;;5081146;28;20191;-65
2022/02/07 01:24:02;;;;;;;10.97;4.60;;;7.40;99.90;;;;;;5084993;28;20793;-66
2022/02/07 01:56:50;;;;;;;5.50;4.90;;;7.30;99.90;;;;;;5068647;28;20535;-67
2022/02/07 01:59:16;;;;;;;8.23;5.30;;;7.30;99.90;;;;;;5059362;28;20436;-65
2022/02/07 02:01:43;;;;;;;6.43;4.90;;;7.20;99.90;;;;;;5071398;28;20179;-65
2022/02/07 02:04:09;;;;;;;8.97;5.10;;;7.20;99.90;;;;;;5058787;28;20217;-62
2022/02/07 02:06:37;;;;;;;5.87;4.87;;;7.20;99.90;;;;;;5073802;28;20191;-62
2022/02/07 02:09:05;;;;;;;5.80;4.60;;;7.20;99.90;;;;;;5066069;28;20554;-64
2022/02/07 02:11:35;;;;;;;5.50;4.27;;;7.20;99.90;;;;;;5054848;28;20187;-63
2022/02/07 02:17:07;;;;;;;5.93;4.40;;;7.20;99.90;;;;;;5066826;28;20255;-63
2022/02/07 02:46:58;;;;;;;5.10;4.30;;;7.30;99.90;;;;;;5083451;28;20209;-65
2022/02/07 02:49:32;;;;;;;5.33;4.23;;;7.20;99.90;;;;;;5080463;28;20267;-66
2022/02/07 02:51:59;;;;;;;9.00;4.50;;;7.20;99.90;;;;;;5086185;28;20193;-63
2022/02/07 02:54:25;;;;;;;8.27;4.13;;;7.20;99.90;;;;;;5084369;28;20190;-64
2022/02/07 02:56:51;;;;;;;5.73;4.43;;;7.20;99.90;;;;;;5067708;28;20229;-63
2022/02/07 02:59:17;;;;;;;12.03;4.40;;;7.20;99.90;;;;;;5082737;28;20188;-64
2022/02/07 03:01:44;;;;;;;7.33;4.70;;;7.30;99.90;;;;;;5080654;28;20182;-64
2022/02/07 03:04:10;;;;;;;8.47;4.53;;;7.30;99.90;;;;;;5076909;28;20621;-63
2022/02/07 03:06:38;;;;;;;5.70;4.13;;;7.30;99.90;;;;;;5081877;28;20853;-65
2022/02/07 03:09:12;;;;;;;6.13;4.70;;;7.40;99.90;;;;;;5069979;28;20221;-63
2022/02/07 03:11:39;;;;;;;6.23;4.37;;;7.40;99.90;;;;;;5080179;28;20764;-63
2022/02/07 03:14:06;;;;;;;6.93;4.53;;;7.30;99.90;;;;;;5068902;28;20222;-65
2022/02/07 03:16:37;;;;;;;4.57;4.10;;;7.30;99.90;;;;;;5073459;28;20656;-64
2022/02/07 03:19:10;;;;;;;7.37;4.40;;;7.30;99.90;;;;;;5070335;28;20199;-65
2022/02/07 03:21:38;;;;;;;8.27;4.10;;;7.30;99.90;;;;;;5074330;28;20739;-64
2022/02/07 03:24:07;;;;;;;5.93;4.70;;;7.20;99.90;;;;;;5085654;28;20222;-63
2022/02/07 03:26:42;;;;;;;6.63;4.47;;;7.20;99.90;;;;;;5082674;28;20186;-64
2022/02/07 03:29:10;;;;;;;6.70;4.50;;;7.20;99.90;;;;;;5082424;28;20579;-64
2022/02/07 03:31:37;;;;;;;8.53;4.60;;;7.30;99.90;;;;;;5080055;28;20586;-64
2022/02/07 03:34:04;;;;;;;9.80;4.63;;;7.30;99.90;;;;;;5076013;28;20498;-64
2022/02/07 03:36:32;;;;;;;4.77;4.03;;;7.30;99.90;;;;;;5079481;28;20301;-65
2022/02/07 03:38:59;;;;;;;8.03;4.77;;;7.30;99.90;;;;;;5065638;28;20212;-66
2022/02/07 03:41:25;;;;;;;6.97;4.43;;;7.20;99.90;;;;;;5072158;28;20841;-64
2022/02/07 03:43:52;;;;;;;8.93;4.53;;;7.20;99.90;;;;;;5084319;28;20196;-65
2022/02/07 03:46:19;;;;;;;6.93;4.30;;;7.20;99.90;;;;;;5084482;28;20194;-68
2022/02/07 03:48:46;;;;;;;8.67;4.70;;;7.20;99.90;;;;;;5064850;28;20191;-67
2022/02/07 03:51:12;;;;;;;8.93;4.07;;;7.20;99.90;;;;;;5076289;28;20203;-67
2022/02/07 03:53:38;;;;;;;9.00;4.10;;;7.20;99.90;;;;;;5078496;28;20203;-65
2022/02/07 03:56:06;;;;;;;6.00;3.97;;;7.20;99.90;;;;;;5069481;28;20210;-66
2022/02/07 03:58:33;;;;;;;6.70;4.60;;;7.20;99.90;;;;;;5073107;28;20280;-66
2022/02/07 04:00:59;;;;;;;4.50;3.87;;;7.20;99.90;;;;;;5079529;28;20178;-68
2022/02/07 04:03:29;;;;;;;8.67;4.40;;;7.10;99.90;;;;;;5083161;28;20238;-65
2022/02/07 04:08:28;;;;;;;7.60;4.07;;;7.20;99.90;;;;;;5076250;28;20222;-66
2022/02/07 04:13:33;;;;;;;5.60;4.00;;;7.10;99.90;;;;;;5076875;28;20268;-68
2022/02/07 04:16:02;;;;;;;6.33;4.67;;;7.20;99.90;;;;;;5056777;28;20237;-67
2022/02/07 04:18:51;;;;;;;5.47;4.43;;;7.10;99.90;;;;;;5072401;28;20193;-67
2022/02/07 04:21:17;;;;;;;5.93;4.50;;;7.10;99.90;;;;;;5086177;28;20193;-66
2022/02/07 04:23:44;;;;;;;6.60;4.43;;;7.20;99.90;;;;;;5081420;28;20204;-66
2022/02/07 04:26:10;;;;;;;6.03;4.30;;;7.20;99.90;;;;;;5066174;28;20197;-66
2022/02/07 04:28:36;;;;;;;7.10;4.50;;;7.20;99.90;;;;;;5070469;28;20221;-65
2022/02/07 04:31:03;;;;;;;9.63;5.70;;;7.20;99.90;;;;;;5061281;28;20204;-66
2022/02/07 04:33:29;;;;;;;9.93;5.47;;;7.10;99.90;;;;;;5082614;28;20217;-66
2022/02/07 04:35:55;;;;;;;9.23;5.60;;;7.10;99.90;;;;;;5082708;28;20374;-64
2022/02/07 04:38:21;;;;;;;8.37;4.93;;;7.10;99.90;;;;;;5065932;28;20230;-63
2022/02/07 04:40:48;;;;;;;7.37;4.53;;;7.10;99.90;;;;;;5070953;28;20224;-65
2022/02/07 04:43:16;;;;;;;6.13;4.53;;;7.10;99.90;;;;;;5066087;28;20262;-64
2022/02/07 04:58:58;;;;;;;7.57;4.30;;;6.90;99.90;;;;;;5069252;28;20810;-65
2022/02/07 05:04:34;;;;;;;8.03;4.40;;;7.00;99.90;;;;;;5048054;28;20193;-63
2022/02/07 05:15:17;;;;;;;8.07;5.10;;;7.20;99.90;;;;;;5087680;28;20202;-65
2022/02/07 05:17:44;;;;;;;10.23;5.83;;;7.30;99.90;;;;;;5076990;28;20211;-66
2022/02/07 05:20:10;;;;;;;8.57;5.60;;;7.40;99.90;;;;;;5071855;28;20194;-66
2022/02/07 05:22:38;;;;;;;7.13;5.07;;;7.50;99.90;;;;;;5085511;28;20193;-69
2022/02/07 05:25:06;;;;;;;8.93;5.80;;;7.60;99.90;;;;;;5080721;28;20194;-69
2022/02/07 05:27:32;;;;;;;9.90;5.27;;;7.60;99.90;;;;;;5081354;28;20918;-66
2022/02/07 05:29:59;;;;;;;8.17;5.47;;;7.60;99.90;;;;;;5079130;28;20193;-65
2022/02/07 05:32:25;;;;;;;7.57;5.37;;;7.60;99.90;;;;;;5079242;28;20243;-64
2022/02/07 05:34:51;;;;;;;9.80;4.73;;;7.70;99.90;;;;;;5071604;28;20215;-64
2022/02/07 05:37:18;;;;;;;10.33;5.80;;;7.80;99.90;;;;;;5071751;28;20179;-64
2022/02/07 05:39:49;;;;;;;10.60;5.67;;;7.80;99.90;;;;;;5086098;28;20190;-66
2022/02/07 05:42:16;;;;;;;9.03;5.50;;;7.80;99.90;;;;;;5073577;28;20199;-64
2022/02/07 05:44:45;;;;;;;11.00;5.67;;;7.90;99.90;;;;;;5070501;28;20712;-64
2022/02/07 05:47:12;;;;;;;8.27;5.80;;;7.80;99.90;;;;;;5069329;28;20194;-64
2022/02/07 05:49:39;;;;;;;11.47;5.90;;;7.90;99.90;;;;;;5081157;28;20228;-66
2022/02/07 05:52:05;;;;;;;13.00;6.27;;;7.90;99.90;;;;;;5086131;28;20213;-66
2022/02/07 05:54:32;;;;;;;7.97;6.43;;;8.00;99.90;;;;;;5087072;28;20225;-66
2022/02/07 05:56:58;;;;;;;14.67;6.37;;;8.10;99.90;;;;;;5073233;28;20220;-67
2022/02/07 05:59:24;;;;;;;7.73;6.17;;;8.10;99.90;;;;;;5065905;28;20183;-66
2022/02/07 06:01:51;;;;;;;10.93;5.97;;;8.10;99.90;;;;;;5073596;28;20182;-66
2022/02/07 06:04:17;;;;;;;7.40;5.73;;;8.10;99.90;;;;;;5075046;28;20193;-67
2022/02/07 06:06:44;;;;;;;6.97;5.57;;;8.20;99.90;;;;;;5083105;28;20198;-67
2022/02/07 06:09:10;;;;;;;7.67;5.60;;;8.20;99.90;;;;;;5080527;28;20194;-67
2022/02/07 06:11:36;;;;;;;12.70;6.40;;;8.30;99.90;;;;;;5066148;28;20193;-67
2022/02/07 06:14:03;;;;;;;9.60;5.90;;;8.30;99.90;;;;;;5067945;28;20229;-67
2022/02/07 06:16:32;;;;;;;11.63;6.57;;;8.40;99.90;;;;;;5069431;28;20691;-64
2022/02/07 06:19:01;;;;;;;7.77;6.27;;;8.50;99.90;;;;;;5069298;28;20210;-64
2022/02/07 06:21:29;;;;;;;11.47;6.17;;;8.60;99.90;;;;;;5061996;28;20186;-65
2022/02/07 06:23:56;;;;;;;9.00;6.07;;;8.60;99.90;;;;;;5079074;28;20280;-62
2022/02/07 06:26:22;;;;;;;8.47;7.07;;;8.70;99.90;;;;;;5085959;28;20221;-64
2022/02/07 06:28:48;;;;;;;15.73;7.33;;;8.80;99.90;;;;;;5071180;28;20679;-63
2022/02/07 06:31:14;;;;;;;8.23;6.70;;;8.80;99.90;;;;;;5078466;28;20190;-67
2022/02/07 06:33:41;;;;;;;8.47;6.60;;;8.90;99.90;;;;;;5066813;28;20204;-65
2022/02/07 06:36:07;;;;;;;9.97;6.97;;;9.00;99.90;;;;;;5086723;28;20205;-66
2022/02/07 06:38:33;;;;;;;8.83;6.07;;;9.00;99.90;;;;;;5072294;28;20195;-65
2022/02/07 06:41:00;;;;;;;12.07;7.03;;;9.10;99.90;;;;;;5080394;28;20186;-62
2022/02/07 06:43:26;;;;;;;11.17;6.73;;;9.20;99.90;;;;;;5074014;28;20194;-65
2022/02/07 06:45:52;;;;;;;13.93;6.50;;;9.30;99.90;;;;;;5078454;28;20270;-65
2022/02/07 06:48:18;;;;;;;10.03;6.37;;;9.30;99.90;;;;;;5083363;28;20635;-64
2022/02/07 06:50:45;;;;;;;8.07;5.93;;;9.40;99.90;;;;;;5069003;28;20191;-63
2022/02/07 06:53:11;;;;;;;7.73;6.30;;;9.50;99.90;;;;;;5084062;28;20217;-65
2022/02/07 06:55:39;;;;;;;10.10;6.17;;;9.50;99.90;;;;;;5103780;28;20375;-64
2022/02/07 06:58:05;;;;;;;10.20;5.90;;;9.60;99.90;;;;;;5089726;28;20182;-66
2022/02/07 07:00:31;;;;;;;9.80;5.47;;;9.50;99.90;;;;;;5068376;28;20668;-67
2022/02/07 07:02:58;;;;;;;8.80;5.87;;;9.50;99.90;;;;;;5071230;28;20190;-65
2022/02/07 07:05:24;;;;;;;15.40;5.87;;;9.70;99.90;;;;;;5074724;28;20206;-66
2022/02/07 07:07:50;;;;;;;7.93;5.43;;;9.70;99.90;;;;;;5069700;28;20190;-66
2022/02/07 07:10:18;;;;;;;8.27;5.60;;;9.80;99.90;;;;;;5079578;28;20198;-65
2022/02/07 07:12:48;;;;;;;10.67;5.20;;;9.80;99.90;;;;;;5072151;28;20547;-66
2022/02/07 07:15:26;;;;;;;6.77;5.20;;;9.80;99.90;;;;;;5076658;28;20591;-65
2022/02/07 07:17:53;;;;;;;5.97;4.97;;;9.80;99.90;;;;;;5083892;28;20197;-67
2022/02/07 07:20:19;;;;;;;8.40;4.77;;;9.80;99.90;;;;;;5077680;28;20226;-65
2022/02/07 07:22:46;;;;;;;7.20;5.33;;;9.90;99.90;;;;;;5056752;28;20606;-65
2022/02/07 07:25:16;;;;;;;8.03;5.37;;;9.90;99.90;;;;;;5076090;28;20213;-65
2022/02/07 07:27:57;;;;;;;7.87;4.53;;;9.90;99.90;;;;;;5079787;28;20193;-65
2022/02/07 07:30:26;;;;;;;7.23;4.70;;;10.00;99.90;;;;;;5084670;28;20189;-66
2022/02/07 07:32:58;;;;;;;11.07;4.70;;;10.00;99.90;;;;;;5079956;28;20317;-66
2022/02/07 07:35:24;;;;;;;9.03;4.70;;;10.10;99.90;;;;;;5073390;28;20222;-65
2022/02/07 07:37:50;;;;;;;9.20;4.53;;;10.20;99.90;;;;;;5072126;28;20321;-65
2022/02/07 07:40:17;;;;;;;5.07;4.40;;;10.20;99.90;;;;;;5076175;28;20255;-65
2022/02/07 07:42:51;;;;;;;5.13;4.20;;;10.20;99.90;;;;;;5083513;28;20190;-64
2022/02/07 07:45:21;;;;;;;6.57;4.53;;;10.30;99.90;;;;;;5076892;28;20200;-65
2022/02/07 07:47:50;;;;;;;5.30;3.97;;;10.30;99.90;;;;;;5066982;28;20190;-65
2022/02/07 07:53:13;;;;;;;7.67;4.00;;;10.30;99.90;;;;;;5077170;28;20193;-68
2022/02/07 08:03:44;;;;;;;3.77;3.00;;;10.40;99.90;;;;;;5073860;28;20542;-62
2022/02/07 08:06:19;;;;;;;5.87;3.17;;;10.60;99.90;;;;;;5058924;28;20631;-63
2022/02/07 08:09:12;;;;;;;6.30;3.17;;;10.70;99.90;;;;;;5077232;28;20189;-64
2022/02/07 08:11:38;;;;;;;4.73;3.13;;;10.70;99.90;;;;;;5078064;28;20182;-64
2022/02/07 08:14:05;;;;;;;6.17;2.57;;;10.70;99.90;;;;;;5083663;28;20228;-65
2022/02/07 08:16:32;;;;;;;5.67;3.03;;;10.60;99.90;;;;;;5079483;28;20198;-64
2022/02/07 08:19:05;;;;;;;8.90;3.30;;;10.70;99.90;;;;;;5090009;28;20309;-63
2022/02/07 08:21:36;;;;;;;6.57;3.00;;;10.70;99.90;;;;;;5071649;28;20283;-62
2022/02/07 08:24:05;;;;;;;6.90;3.17;;;10.70;99.90;;;;;;5058627;28;20289;-62
2022/02/07 08:26:32;;;;;;;8.10;3.20;;;10.80;99.90;;;;;;5077317;28;20272;-63
2022/02/07 08:28:58;;;;;;;7.17;2.67;;;10.90;99.90;;;;;;5074755;28;20186;-63
2022/02/07 08:31:26;;;;;;;5.33;2.90;;;10.90;99.90;;;;;;5069564;28;20225;-63
2022/02/07 08:33:52;;;;;;;6.27;3.10;;;11.00;99.90;;;;;;5065693;28;20217;-64
2022/02/07 08:36:19;;;;;;;6.43;3.13;;;11.00;99.90;;;;;;5080642;28;20302;-64
2022/02/07 08:38:45;;;;;;;5.73;2.80;;;11.00;99.90;;;;;;5078676;28;20213;-64
2022/02/07 08:41:12;;;;;;;4.67;2.60;;;11.00;99.90;;;;;;5071275;28;20690;-64
2022/02/07 08:43:38;;;;;;;5.20;2.90;;;11.10;99.90;;;;;;5086440;28;20905;-64
2022/02/07 08:46:05;;;;;;;4.70;2.83;;;11.10;99.90;;;;;;5083860;28;20194;-63
2022/02/07 08:48:32;;;;;;;6.23;2.33;;;11.20;99.90;;;;;;5076032;28;20222;-64
2022/02/07 08:50:58;;;;;;;6.27;2.80;;;11.20;99.90;;;;;;5083753;28;20209;-66
2022/02/07 08:53:32;;;;;;;2.80;2.27;;;11.20;99.90;;;;;;5074937;28;20199;-64
2022/02/07 08:56:01;;;;;;;4.60;2.40;;;11.30;99.90;;;;;;5078360;28;20207;-64
2022/02/07 08:58:29;;;;;;;4.10;2.23;;;11.30;99.90;;;;;;5076838;28;20669;-64
2022/02/07 09:01:20;;;;;;;6.80;2.60;;;11.30;99.90;;;;;;5070022;28;20197;-64
2022/02/07 09:09:32;;;;;;;4.20;2.60;;;11.50;99.90;;;;;;5082551;28;20214;-64
2022/02/07 09:11:53;;;;;;;6.00;2.60;;;11.50;99.90;;;;;;5071569;28;20660;-61
2022/02/07 09:14:22;;;;;;;6.57;2.40;;;11.60;99.90;;;;;;5082243;28;20198;-63
2022/02/07 09:16:55;;;;;;;3.17;2.30;;;11.60;99.90;;;;;;5084817;28;20202;-62
2022/02/07 09:19:22;;;;;;;2.97;2.40;;;11.70;99.90;;;;;;5077113;28;20210;-62
2022/02/07 09:21:49;;;;;;;4.97;2.50;;;11.80;99.90;;;;;;5078388;28;20244;-65
2022/02/07 09:24:19;;;;;;;6.53;2.50;;;12.00;99.90;;;;;;5083793;28;20293;-65
2022/02/07 09:26:46;;;;;;;3.97;2.40;;;12.10;99.90;;;;;;5079163;28;20674;-64
2022/02/07 09:29:13;;;;;;;5.73;2.40;;;12.10;99.90;;;;;;5082003;28;20199;-66
2022/02/07 09:31:40;;;;;;;2.90;2.40;;;12.10;99.90;;;;;;5073994;28;20190;-64
2022/02/07 09:34:06;;;;;;;7.63;2.40;;;12.10;99.90;;;;;;5067989;28;20212;-64
2022/02/07 09:36:33;;;;;;;5.63;2.33;;;12.20;99.90;;;;;;5073492;28;20222;-64
2022/02/07 09:38:59;;;;;;;3.27;2.17;;;12.40;99.90;;;;;;5080895;28;20197;-64
2022/02/07 09:41:30;;;;;;;2.97;2.03;;;12.50;99.90;;;;;;5083781;28;20297;-65
2022/02/07 09:44:00;;;;;;;8.00;2.13;;;12.60;99.90;;;;;;5086118;28;20190;-64
2022/02/07 09:46:45;;;;;;;4.33;2.17;;;12.60;99.90;;;;;;5072966;28;20370;-66
2022/02/07 09:49:18;;;;;;;5.73;1.90;;;12.60;99.90;;;;;;5068266;28;20507;-64
2022/02/07 09:51:48;;;;;;;3.37;2.27;;;12.60;99.90;;;;;;5077865;28;20201;-64
2022/02/07 09:54:22;;;;;;;2.70;1.80;;;12.60;99.90;;;;;;5074667;28;20183;-66
2022/02/07 09:56:51;;;;;;;3.93;2.03;;;12.60;99.90;;;;;;5076353;28;20297;-64
2022/02/07 09:59:21;;;;;;;2.90;2.10;;;12.60;99.90;;;;;;5078316;28;20650;-65
2022/02/07 10:01:53;;;;;;;1.93;1.67;;;12.70;99.90;;;;;;5086446;28;20282;-63
2022/02/07 10:04:36;;;;;;;2.17;1.80;;;12.80;99.90;;;;;;5081459;28;20194;-63
2022/02/07 10:07:25;;;;;;;2.87;1.80;;;12.90;99.90;;;;;;5089702;28;20198;-64
2022/02/07 10:10:10;;;;;;;3.33;1.87;;;13.00;99.90;;;;;;5091638;27;20316;-64
2022/02/07 10:12:58;;;;;;;1.97;1.60;;;13.00;99.90;;;;;;5072754;28;20602;-65
2022/02/07 10:15:52;;;;;;;3.33;1.80;;;13.00;99.90;;;;;;5079408;28;20245;-65
2022/02/07 10:18:58;;;;;;;2.63;2.07;;;13.10;99.90;;;;;;5069072;28;20191;-63
2022/02/07 10:38:18;;;;;;;3.90;1.73;;;14.30;99.90;;;;;;5077668;28;20202;-66
2022/02/07 10:46:16;;;;;;;2.63;1.90;;;15.60;99.90;;;;;;5079888;28;20187;-69
2022/02/07 10:48:48;;;;;;;4.63;1.77;;;16.70;99.90;;;;;;5072875;28;20245;-67
2022/02/07 10:51:27;;;;;;;4.43;2.10;;;17.80;99.90;;;;;;5073355;28;20389;-66
2022/02/07 10:54:02;;;;;;;3.40;1.70;;;18.20;99.90;;;;;;5067858;28;20212;-64
2022/02/07 10:56:42;;;;;;;2.33;1.90;;;18.70;99.90;;;;;;5077331;28;20259;-66
2022/02/07 10:59:14;;;;;;;3.03;2.03;;;19.00;99.90;;;;;;5077139;28;20186;-66
2022/02/07 11:04:29;;;;;;;4.70;1.93;;;18.30;99.90;;;;;;5069331;28;20176;-67
2022/02/07 11:07:01;;;;;;;2.13;1.70;;;18.10;99.90;;;;;;5084763;28;20217;-66
2022/02/07 11:13:37;;;;;;;5.10;2.10;;;17.70;99.90;;;;;;5072420;28;20643;-65
2022/02/07 11:23:17;;;;;;;4.33;2.00;;;15.60;99.90;;;;;;5077142;28;20692;-68
2022/02/07 11:28:25;;;;;;;2.73;2.17;;;15.00;99.90;;;;;;5069167;28;20280;-65
2022/02/07 11:31:08;;;;;;;4.53;2.23;;;15.10;99.90;;;;;;5065437;28;20546;-66
2022/02/07 11:33:51;;;;;;;4.77;2.10;;;15.20;99.90;;;;;;5079794;28;20206;-67
2022/02/07 11:36:36;;;;;;;4.30;1.73;;;15.30;99.90;;;;;;5077159;28;20239;-64
2022/02/07 11:39:13;;;;;;;3.43;2.23;;;15.40;99.90;;;;;;5064367;28;20278;-65
2022/02/07 11:42:00;;;;;;;3.20;2.00;;;15.40;99.90;;;;;;5075001;28;20205;-67
2022/02/07 11:44:52;;;;;;;4.77;1.83;;;15.50;99.90;;;;;;5063656;28;20196;-66
2022/02/07 11:47:29;;;;;;;3.30;2.10;;;15.50;99.90;;;;;;5042702;28;20289;-64
2022/02/07 11:50:06;;;;;;;2.30;1.90;;;15.40;99.90;;;;;;5071715;28;20214;-66
2022/02/07 11:52:37;;;;;;;3.83;1.93;;;15.30;99.90;;;;;;5065382;28;20202;-65
2022/02/07 11:55:13;;;;;;;4.03;1.90;;;15.40;99.90;;;;;;5075632;28;20226;-65
2022/02/07 11:58:18;;;;;;;3.00;1.83;;;15.30;99.90;;;;;;5063214;28;20186;-65
2022/02/07 12:00:47;;;;;;;2.90;2.00;;;15.30;99.90;;;;;;5061567;28;20229;-64
2022/02/07 12:03:17;;;;;;;3.27;1.83;;;15.20;99.90;;;;;;5047799;28;20190;-65
2022/02/07 12:05:55;;;;;;;3.03;2.23;;;15.20;99.90;;;;;;5036240;28;20202;-65
2022/02/07 12:08:31;;;;;;;3.37;1.80;;;15.20;99.90;;;;;;5034605;28;20183;-65
2022/02/07 12:11:05;;;;;;;2.50;1.90;;;15.10;99.90;;;;;;5019567;28;20606;-65
2022/02/07 12:13:42;;;;;;;2.73;1.70;;;15.10;99.90;;;;;;5036896;28;20222;-64
2022/02/07 12:16:22;;;;;;;3.70;1.90;;;15.10;99.90;;;;;;5035647;28;20226;-64
2022/02/07 12:19:14;;;;;;;3.57;1.80;;;15.00;99.90;;;;;;5014150;28;20250;-65
2022/02/07 12:21:51;;;;;;;8.23;1.60;;;15.00;99.90;;;;;;4995852;28;20187;-66
2022/02/07 12:24:17;;;;;;;4.00;1.80;;;14.90;99.90;;;;;;4981682;28;20215;-65
2022/02/07 12:26:46;;;;;;;3.47;1.70;;;14.80;99.90;;;;;;5019066;28;20196;-66
2022/02/07 12:29:46;;;;;;;4.27;2.00;;;14.80;99.90;;;;;;5017902;28;20199;-65
2022/02/07 12:32:11;;;;;;;4.13;2.00;;;14.70;99.90;;;;;;5014421;28;20251;-65
2022/02/07 12:34:39;;;;;;;4.13;1.60;;;14.70;99.90;;;;;;5039536;28;20227;-64
2022/02/07 12:37:05;;;;;;;4.60;1.70;;;14.70;99.90;;;;;;5038790;28;20246;-65
2022/02/07 12:39:35;;;;;;;5.77;1.83;;;14.70;99.90;;;;;;5026576;28;20248;-65
2022/02/07 12:42:07;;;;;;;3.73;1.60;;;14.60;99.90;;;;;;5025762;28;20253;-65
2022/02/07 12:44:38;;;;;;;5.77;1.90;;;14.60;99.90;;;;;;5019852;28;20747;-67
2022/02/07 12:47:12;;;;;;;4.40;2.10;;;14.60;99.90;;;;;;5022532;28;20199;-64
2022/02/07 12:49:44;;;;;;;5.20;1.90;;;14.50;99.90;;;;;;5033051;28;20279;-65
2022/02/07 12:52:10;;;;;;;2.43;2.00;;;14.50;99.90;;;;;;5080889;28;20635;-64
2022/02/07 12:54:38;;;;;;;3.80;2.03;;;14.60;99.90;;;;;;5061118;28;20257;-66
2022/02/07 12:57:05;;;;;;;2.50;1.70;;;14.50;99.90;;;;;;5069390;28;20990;-65
2022/02/07 12:59:32;;;;;;;3.07;1.90;;;14.40;99.90;;;;;;5078818;28;20209;-66
2022/02/07 13:01:59;;;;;;;3.00;1.73;;;14.20;99.90;;;;;;5079362;28;20643;-66
2022/02/07 13:04:26;;;;;;;8.57;2.10;;;14.20;99.90;;;;;;5073241;28;20195;-65
2022/02/07 13:06:55;;;;;;;3.97;1.97;;;14.20;99.90;;;;;;5060170;28;20770;-64
2022/02/07 13:09:32;;;;;;;2.10;1.70;;;14.10;99.90;;;;;;5065765;28;20719;-64
2022/02/07 13:14:45;;;;;;;3.87;2.13;;;14.10;99.90;;;;;;5073879;28;21125;-66
2022/02/07 13:17:14;;;;;;;2.33;1.77;;;14.10;99.90;;;;;;5077787;28;20194;-63
2022/02/07 13:19:44;;;;;;;4.47;2.07;;;14.00;99.90;;;;;;5071362;28;20861;-65
2022/02/07 13:22:15;;;;;;;3.97;1.60;;;13.90;99.90;;;;;;5080071;28;20198;-65
2022/02/07 13:24:42;;;;;;;3.83;2.00;;;13.90;99.90;;;;;;5086286;28;20191;-66
2022/02/07 13:27:13;;;;;;;3.97;2.07;;;13.90;99.90;;;;;;5082722;28;20191;-64
2022/02/07 13:29:46;;;;;;;4.87;2.17;;;13.80;99.90;;;;;;5067589;28;20182;-64
2022/02/07 13:32:30;;;;;;;2.50;1.80;;;13.70;99.90;;;;;;5070009;28;20949;-64
2022/02/07 13:35:13;;;;;;;2.90;1.90;;;13.70;99.90;;;;;;5075751;28;20279;-64
2022/02/07 13:37:43;;;;;;;2.87;2.00;;;13.70;99.90;;;;;;5081804;28;20264;-63
2022/02/07 13:40:21;;;;;;;3.60;1.90;;;13.70;99.90;;;;;;5073599;28;20191;-65
2022/02/07 13:42:54;;;;;;;7.57;2.17;;;13.70;99.90;;;;;;5074334;28;20198;-64
2022/02/07 13:45:24;;;;;;;4.27;2.10;;;13.60;99.90;;;;;;5075156;28;20187;-65
2022/02/07 13:47:54;;;;;;;4.77;1.63;;;13.60;99.90;;;;;;5072619;28;21474;-64
2022/02/07 13:50:24;;;;;;;4.57;1.97;;;13.50;99.90;;;;;;5062429;28;20574;-64
2022/02/07 13:52:59;;;;;;;4.77;2.20;;;13.50;99.90;;;;;;5075871;28;20273;-64
2022/02/07 13:55:43;;;;;;;7.90;2.27;;;13.40;99.90;;;;;;5076674;28;20236;-64
2022/02/07 13:58:19;;;;;;;3.97;1.80;;;13.40;99.90;;;;;;5077804;28;20617;-64
2022/02/07 14:00:49;;;;;;;4.33;2.10;;;13.40;99.90;;;;;;5074937;28;20190;-65
2022/02/07 14:03:23;;;;;;;5.53;2.03;;;13.40;99.90;;;;;;5072832;28;20706;-64
2022/02/07 14:05:55;;;;;;;4.73;2.20;;;13.30;99.90;;;;;;5075229;28;20207;-65
2022/02/07 14:08:43;;;;;;;3.50;1.67;;;13.30;99.90;;;;;;5070232;28;20186;-63
2022/02/07 14:11:26;;;;;;;4.50;1.93;;;13.30;99.90;;;;;;5082213;28;20237;-65
2022/02/07 14:13:56;;;;;;;3.47;1.73;;;13.20;99.90;;;;;;5076808;28;20251;-63
2022/02/07 14:16:26;;;;;;;2.77;1.73;;;13.20;99.90;;;;;;5074901;28;20218;-64
2022/02/07 14:18:55;;;;;;;4.00;2.10;;;13.20;99.90;;;;;;5071084;28;20212;-65
2022/02/07 14:21:26;;;;;;;3.17;2.07;;;13.20;99.90;;;;;;5084010;28;20190;-63
2022/02/07 14:23:55;;;;;;;4.63;1.93;;;13.20;99.90;;;;;;5076646;28;20296;-64
2022/02/07 14:26:26;;;;;;;2.53;1.80;;;13.10;99.90;;;;;;5090781;28;20654;-66
2022/02/07 14:28:53;;;;;;;6.17;2.00;;;13.10;99.90;;;;;;5069586;28;20642;-65
2022/02/07 14:31:21;;;;;;;4.67;1.97;;;13.10;99.90;;;;;;5072369;28;22269;-64
2022/02/07 14:33:48;;;;;;;4.23;1.90;;;13.10;99.90;;;;;;5073982;28;20251;-64
2022/02/07 14:36:15;;;;;;;4.50;1.90;;;13.10;99.90;;;;;;5081192;28;20716;-64
2022/02/07 14:38:42;;;;;;;4.63;1.73;;;13.10;99.90;;;;;;5077880;28;20285;-66
2022/02/07 14:41:10;;;;;;;3.70;1.70;;;13.00;99.90;;;;;;5066147;28;20193;-64
2022/02/07 14:43:37;;;;;;;2.30;1.50;;;13.00;99.90;;;;;;5068322;28;20194;-63
2022/02/07 14:46:11;;;;;;;2.57;1.57;;;13.00;99.90;;;;;;5082105;28;20517;-64
2022/02/07 14:48:41;;;;;;;3.63;1.50;;;13.00;99.90;;;;;;5063202;28;20329;-65
2022/02/07 14:51:09;;;;;;;3.40;1.50;;;12.90;99.90;;;;;;5075665;28;20459;-65
2022/02/07 14:53:38;;;;;;;2.50;1.43;;;12.90;99.90;;;;;;5091172;28;20927;-65
2022/02/07 14:56:07;;;;;;;3.40;1.40;;;12.90;99.90;;;;;;5080263;28;20218;-65
2022/02/07 14:58:35;;;;;;;1.17;1.07;;;12.80;99.90;;;;;;5078862;28;20191;-64
2022/02/07 15:01:03;;;;;;;2.03;1.40;;;12.80;99.90;;;;;;5074656;28;20194;-66
2022/02/07 15:03:29;;;;;;;2.33;1.23;;;12.70;99.90;;;;;;5079765;28;20182;-65
2022/02/07 15:05:57;;;;;;;2.93;1.70;;;12.70;99.90;;;;;;5072296;28;20268;-65
2022/02/07 15:08:26;;;;;;;2.70;1.30;;;12.70;99.90;;;;;;5081282;28;20224;-65
2022/02/07 15:10:53;;;;;;;1.50;1.20;;;12.70;99.90;;;;;;5071487;28;20218;-65
2022/02/07 15:13:20;;;;;;;2.00;1.20;;;12.60;99.90;;;;;;5072810;28;20209;-65
2022/02/07 15:15:47;;;;;;;10.00;1.60;;;12.60;99.90;;;;;;5075132;28;20221;-64
2022/02/07 15:18:13;;;;;;;3.80;1.60;;;12.50;99.90;;;;;;5084856;28;20200;-64
2022/02/07 15:20:41;;;;;;;3.17;1.50;;;12.40;99.90;;;;;;5082935;28;20194;-64
2022/02/07 15:23:10;;;;;;;2.90;1.57;;;12.40;99.90;;;;;;5062181;28;20197;-64
2022/02/07 15:25:39;;;;;;;2.27;1.50;;;12.40;99.90;;;;;;5076911;28;20195;-66
2022/02/07 15:28:09;;;;;;;2.47;1.60;;;12.40;99.90;;;;;;5069146;28;20194;-64
2022/02/07 15:30:45;;;;;;;3.73;1.47;;;12.30;99.90;;;;;;5081069;28;20222;-66
2022/02/07 15:33:19;;;;;;;3.33;1.63;;;12.30;99.90;;;;;;5078734;28;20231;-64
2022/02/07 15:35:54;;;;;;;1.73;1.50;;;12.30;99.90;;;;;;5071876;28;20209;-64
2022/02/07 15:38:24;;;;;;;2.57;1.60;;;12.30;99.90;;;;;;5077404;28;20863;-63
2022/02/07 15:40:53;;;;;;;2.00;1.50;;;12.20;99.90;;;;;;5075231;28;20186;-64
2022/02/07 15:43:19;;;;;;;3.37;1.90;;;12.10;99.90;;;;;;5075654;28;20348;-64
2022/02/07 15:45:46;;;;;;;2.87;1.40;;;12.00;99.90;;;;;;5071325;28;20621;-64
2022/02/07 15:48:14;;;;;;;2.50;1.60;;;12.00;99.90;;;;;;5074701;28;20197;-65